sensor_id;sensor_type;location;lat;lon;timestamp;temperature;humidity
22795;DHT22;11564;50.920;11.612;2023-10-19T00:01:47;8.30;99.90
22795;DHT22;11564;50.920;11.612;2023-10-19T00:04:13;8.30;99.90
22795;DHT22;11564;50.920;11.612;2023-10-19T00:06:38;8.30;99.90
22795;DHT22;11564;50.920;11.612;2023-10-19T00:09:05;8.20;99.90
22795;DHT22;11564;50.920;11.612;2023-10-19T00:11:36;8.30;99.90
22795;DHT22;11564;50.920;11.612;2023-10-19T00:14:04;8.20;99.90
22795;DHT22;11564;50.920;11.612;2023-10-19T00:16:29;8.20;99.90
22795;DHT22;11564;50.920;11.612;2023-10-19T00:18:55;8.20;99.90
22795;DHT22;11564;50.920;11.612;2023-10-19T00:21:25;8.20;99.90
22795;DHT22;11564;50.920;11.612;2023-10-19T00:23:55;8.20;99.90
22795;DHT22;11564;50.920;11.612;2023-10-19T00:26:22;8.20;99.90
22795;DHT22;11564;50.920;11.612;2023-10-19T00:28:50;8.10;99.90
22795;DHT22;11564;50.920;11.612;2023-10-19T00:31:19;8.20;99.90
22795;DHT22;11564;50.920;11.612;2023-10-19T00:33:47;8.20;99.90
22795;DHT22;11564;50.920;11.612;2023-10-19T00:36:17;8.30;99.90
22795;DHT22;11564;50.920;11.612;2023-10-19T00:38:45;8.30;99.90
22795;DHT22;11564;50.920;11.612;2023-10-19T00:41:14;8.30;99.90
22795;DHT22;11564;50.920;11.612;2023-10-19T00:43:45;8.30;99.90
22795;DHT22;11564;50.920;11.612;2023-10-19T00:46:11;8.30;99.90
22795;DHT22;11564;50.920;11.612;2023-10-19T00:49:04;8.20;99.90
22795;DHT22;11564;50.920;11.612;2023-10-19T00:54:10;8.10;99.90
22795;DHT22;11564;50.920;11.612;2023-10-19T00:56:40;8.20;99.90
22795;DHT22;11564;50.920;11.612;2023-10-19T00:59:11;8.10;99.90
22795;DHT22;11564;50.920;11.612;2023-10-19T01:01:40;8.10;99.90
22795;DHT22;11564;50.920;11.612;2023-10-19T01:04:14;8.10;99.90
22795;DHT22;11564;50.920;11.612;2023-10-19T01:06:46;8.10;99.90
22795;DHT22;11564;50.920;11.612;2023-10-19T01:09:29;8.10;99.90
22795;DHT22;11564;50.920;11.612;2023-10-19T01:12:00;8.10;99.90
22795;DHT22;11564;50.920;11.612;2023-10-19T01:14:28;8.10;99.90
22795;DHT22;11564;50.920;11.612;2023-10-19T01:16:55;8.20;99.90
22795;DHT22;11564;50.920;11.612;2023-10-19T01:19:22;8.20;99.90
22795;DHT22;11564;50.920;11.612;2023-10-19T01:21:48;8.20;99.90
22795;DHT22;11564;50.920;11.612;2023-10-19T01:24:21;8.10;99.90
22795;DHT22;11564;50.920;11.612;2023-10-19T01:27:07;8.10;99.90
22795;DHT22;11564;50.920;11.612;2023-10-19T01:29:34;8.20;99.90
22795;DHT22;11564;50.920;11.612;2023-10-19T01:32:00;8.20;99.90
22795;DHT22;11564;50.920;11.612;2023-10-19T01:34:32;8.30;99.90
22795;DHT22;11564;50.920;11.612;2023-10-19T01:36:59;8.30;99.90
22795;DHT22;11564;50.920;11.612;2023-10-19T01:39:28;8.30;99.90
22795;DHT22;11564;50.920;11.612;2023-10-19T01:41:53;8.30;99.90
22795;DHT22;11564;50.920;11.612;2023-10-19T01:44:19;8.30;99.90
22795;DHT22;11564;50.920;11.612;2023-10-19T01:46:46;8.30;99.90
22795;DHT22;11564;50.920;11.612;2023-10-19T01:49:13;8.20;99.90
22795;DHT22;11564;50.920;11.612;2023-10-19T01:51:39;8.30;99.90
22795;DHT22;11564;50.920;11.612;2023-10-19T01:54:05;8.20;99.90
22795;DHT22;11564;50.920;11.612;2023-10-19T01:56:32;8.30;99.90
22795;DHT22;11564;50.920;11.612;2023-10-19T01:59:00;8.20;99.90
22795;DHT22;11564;50.920;11.612;2023-10-19T02:01:26;8.20;99.90
22795;DHT22;11564;50.920;11.612;2023-10-19T02:03:52;8.20;99.90
22795;DHT22;11564;50.920;11.612;2023-10-19T02:06:19;8.20;99.90
22795;DHT22;11564;50.920;11.612;2023-10-19T02:08:54;8.30;99.90
22795;DHT22;11564;50.920;11.612;2023-10-19T02:11:25;8.30;99.90
22795;DHT22;11564;50.920;11.612;2023-10-19T02:13:55;8.20;99.90
22795;DHT22;11564;50.920;11.612;2023-10-19T02:16:25;8.20;99.90
22795;DHT22;11564;50.920;11.612;2023-10-19T02:18:51;8.30;99.90
22795;DHT22;11564;50.920;11.612;2023-10-19T02:21:17;8.20;99.90
22795;DHT22;11564;50.920;11.612;2023-10-19T02:23:52;8.20;99.90
22795;DHT22;11564;50.920;11.612;2023-10-19T02:26:18;8.30;99.90
22795;DHT22;11564;50.920;11.612;2023-10-19T02:28:46;8.30;99.90
22795;DHT22;11564;50.920;11.612;2023-10-19T02:31:11;8.30;99.90
22795;DHT22;11564;50.920;11.612;2023-10-19T02:33:41;8.30;99.90
22795;DHT22;11564;50.920;11.612;2023-10-19T02:36:11;8.30;99.90
22795;DHT22;11564;50.920;11.612;2023-10-19T02:38:38;8.30;99.90
22795;DHT22;11564;50.920;11.612;2023-10-19T02:41:04;8.40;99.90
22795;DHT22;11564;50.920;11.612;2023-10-19T02:43:30;8.30;99.90
22795;DHT22;11564;50.920;11.612;2023-10-19T02:45:58;8.40;99.90
22795;DHT22;11564;50.920;11.612;2023-10-19T02:48:25;8.40;99.90
22795;DHT22;11564;50.920;11.612;2023-10-19T02:50:50;8.40;99.90
22795;DHT22;11564;50.920;11.612;2023-10-19T02:53:16;8.40;99.90
22795;DHT22;11564;50.920;11.612;2023-10-19T02:55:44;8.40;99.90
22795;DHT22;11564;50.920;11.612;2023-10-19T02:58:09;8.40;99.90
22795;DHT22;11564;50.920;11.612;2023-10-19T03:00:36;8.40;99.90
22795;DHT22;11564;50.920;11.612;2023-10-19T03:03:02;8.40;99.90
22795;DHT22;11564;50.920;11.612;2023-10-19T03:05:30;8.30;99.90
22795;DHT22;11564;50.920;11.612;2023-10-19T03:07:56;8.40;99.90
22795;DHT22;11564;50.920;11.612;2023-10-19T03:10:21;8.40;99.90
22795;DHT22;11564;50.920;11.612;2023-10-19T03:13:02;8.50;99.90
22795;DHT22;11564;50.920;11.612;2023-10-19T03:15:29;8.40;99.90
22795;DHT22;11564;50.920;11.612;2023-10-19T03:17:58;8.40;99.90
22795;DHT22;11564;50.920;11.612;2023-10-19T03:20:25;8.40;99.90
22795;DHT22;11564;50.920;11.612;2023-10-19T03:22:52;8.40;99.90
22795;DHT22;11564;50.920;11.612;2023-10-19T03:25:18;8.30;99.90
22795;DHT22;11564;50.920;11.612;2023-10-19T03:28:02;8.40;99.90
22795;DHT22;11564;50.920;11.612;2023-10-19T03:30:36;8.40;99.90
22795;DHT22;11564;50.920;11.612;2023-10-19T03:33:04;8.40;99.90
22795;DHT22;11564;50.920;11.612;2023-10-19T03:35:30;8.40;99.90
22795;DHT22;11564;50.920;11.612;2023-10-19T03:37:55;8.40;99.90
22795;DHT22;11564;50.920;11.612;2023-10-19T03:40:25;8.40;99.90
22795;DHT22;11564;50.920;11.612;2023-10-19T03:42:55;8.40;99.90
22795;DHT22;11564;50.920;11.612;2023-10-19T03:45:20;8.50;99.90
22795;DHT22;11564;50.920;11.612;2023-10-19T03:47:49;8.50;99.90
22795;DHT22;11564;50.920;11.612;2023-10-19T03:50:15;8.50;99.90
22795;DHT22;11564;50.920;11.612;2023-10-19T03:52:45;8.50;99.90
22795;DHT22;11564;50.920;11.612;2023-10-19T03:55:11;8.60;99.90
22795;DHT22;11564;50.920;11.612;2023-10-19T03:57:38;8.60;99.90
22795;DHT22;11564;50.920;11.612;2023-10-19T04:00:15;8.60;99.90
22795;DHT22;11564;50.920;11.612;2023-10-19T04:02:41;8.60;99.90
22795;DHT22;11564;50.920;11.612;2023-10-19T04:05:08;8.70;99.90
22795;DHT22;11564;50.920;11.612;2023-10-19T04:07:35;8.60;99.90
22795;DHT22;11564;50.920;11.612;2023-10-19T04:10:01;8.70;99.90
22795;DHT22;11564;50.920;11.612;2023-10-19T04:12:33;8.70;99.90
22795;DHT22;11564;50.920;11.612;2023-10-19T04:15:03;8.70;99.90
22795;DHT22;11564;50.920;11.612;2023-10-19T04:17:37;8.70;99.90
22795;DHT22;11564;50.920;11.612;2023-10-19T04:20:04;8.70;99.90
22795;DHT22;11564;50.920;11.612;2023-10-19T04:22:51;8.80;99.90
22795;DHT22;11564;50.920;11.612;2023-10-19T04:25:17;8.80;99.90
22795;DHT22;11564;50.920;11.612;2023-10-19T04:27:54;8.70;99.90
22795;DHT22;11564;50.920;11.612;2023-10-19T04:30:22;8.70;99.90
22795;DHT22;11564;50.920;11.612;2023-10-19T04:32:48;8.80;99.90
22795;DHT22;11564;50.920;11.612;2023-10-19T04:35:15;8.80;99.90
22795;DHT22;11564;50.920;11.612;2023-10-19T04:37:49;8.90;99.90
22795;DHT22;11564;50.920;11.612;2023-10-19T04:40:16;8.90;99.90
22795;DHT22;11564;50.920;11.612;2023-10-19T04:42:41;8.90;99.90
22795;DHT22;11564;50.920;11.612;2023-10-19T04:45:07;8.90;99.90
22795;DHT22;11564;50.920;11.612;2023-10-19T04:47:33;9.00;99.90
22795;DHT22;11564;50.920;11.612;2023-10-19T04:50:01;9.00;99.90
22795;DHT22;11564;50.920;11.612;2023-10-19T04:52:27;9.00;99.90
22795;DHT22;11564;50.920;11.612;2023-10-19T04:54:52;9.00;99.90
22795;DHT22;11564;50.920;11.612;2023-10-19T04:57:19;9.00;99.90
22795;DHT22;11564;50.920;11.612;2023-10-19T04:59:46;9.10;99.90
22795;DHT22;11564;50.920;11.612;2023-10-19T05:02:12;9.10;99.90
22795;DHT22;11564;50.920;11.612;2023-10-19T05:04:37;9.10;99.90
22795;DHT22;11564;50.920;11.612;2023-10-19T05:07:03;9.10;99.90
22795;DHT22;11564;50.920;11.612;2023-10-19T05:09:29;9.20;99.90
22795;DHT22;11564;50.920;11.612;2023-10-19T05:11:55;9.20;99.90
22795;DHT22;11564;50.920;11.612;2023-10-19T05:14:20;9.20;99.90
22795;DHT22;11564;50.920;11.612;2023-10-19T05:16:46;9.30;99.90
22795;DHT22;11564;50.920;11.612;2023-10-19T05:19:11;9.30;99.90
22795;DHT22;11564;50.920;11.612;2023-10-19T05:21:37;9.30;99.90
22795;DHT22;11564;50.920;11.612;2023-10-19T05:24:02;9.30;99.90
22795;DHT22;11564;50.920;11.612;2023-10-19T05:26:28;9.40;99.90
22795;DHT22;11564;50.920;11.612;2023-10-19T05:28:53;9.50;99.90
22795;DHT22;11564;50.920;11.612;2023-10-19T05:31:19;9.50;99.90
22795;DHT22;11564;50.920;11.612;2023-10-19T05:33:45;9.50;99.90
22795;DHT22;11564;50.920;11.612;2023-10-19T05:36:13;9.50;99.90
22795;DHT22;11564;50.920;11.612;2023-10-19T05:38:40;9.60;99.90
22795;DHT22;11564;50.920;11.612;2023-10-19T05:41:05;9.50;99.90
22795;DHT22;11564;50.920;11.612;2023-10-19T05:43:31;9.50;99.90
22795;DHT22;11564;50.920;11.612;2023-10-19T05:45:56;9.60;99.90
22795;DHT22;11564;50.920;11.612;2023-10-19T05:48:22;9.60;99.90
22795;DHT22;11564;50.920;11.612;2023-10-19T05:50:49;9.70;99.90
22795;DHT22;11564;50.920;11.612;2023-10-19T05:53:15;9.60;99.90
22795;DHT22;11564;50.920;11.612;2023-10-19T05:55:44;9.70;99.90
22795;DHT22;11564;50.920;11.612;2023-10-19T05:58:09;9.70;99.90
22795;DHT22;11564;50.920;11.612;2023-10-19T06:00:35;9.70;99.90
22795;DHT22;11564;50.920;11.612;2023-10-19T06:03:00;9.80;99.90
22795;DHT22;11564;50.920;11.612;2023-10-19T06:05:26;9.80;99.90
22795;DHT22;11564;50.920;11.612;2023-10-19T06:07:51;9.80;99.90
22795;DHT22;11564;50.920;11.612;2023-10-19T06:10:18;9.80;99.90
22795;DHT22;11564;50.920;11.612;2023-10-19T06:12:45;9.80;99.90
22795;DHT22;11564;50.920;11.612;2023-10-19T06:15:12;9.90;99.90
22795;DHT22;11564;50.920;11.612;2023-10-19T06:17:38;9.90;99.90
22795;DHT22;11564;50.920;11.612;2023-10-19T06:20:05;9.90;99.90
22795;DHT22;11564;50.920;11.612;2023-10-19T06:22:33;10.00;99.90
22795;DHT22;11564;50.920;11.612;2023-10-19T06:24:58;10.00;99.90
22795;DHT22;11564;50.920;11.612;2023-10-19T06:27:24;10.10;99.90
22795;DHT22;11564;50.920;11.612;2023-10-19T06:29:49;10.00;99.90
22795;DHT22;11564;50.920;11.612;2023-10-19T06:32:15;10.10;99.90
22795;DHT22;11564;50.920;11.612;2023-10-19T06:34:41;10.10;99.90
22795;DHT22;11564;50.920;11.612;2023-10-19T06:37:06;10.10;99.90
22795;DHT22;11564;50.920;11.612;2023-10-19T06:39:35;10.10;99.90
22795;DHT22;11564;50.920;11.612;2023-10-19T06:42:06;10.10;99.90
22795;DHT22;11564;50.920;11.612;2023-10-19T06:44:34;10.10;99.90
22795;DHT22;11564;50.920;11.612;2023-10-19T06:47:01;10.20;99.90
22795;DHT22;11564;50.920;11.612;2023-10-19T06:49:29;10.20;99.90
22795;DHT22;11564;50.920;11.612;2023-10-19T06:51:54;10.20;99.90
22795;DHT22;11564;50.920;11.612;2023-10-19T06:54:21;10.30;99.90
22795;DHT22;11564;50.920;11.612;2023-10-19T06:56:46;10.30;99.90
22795;DHT22;11564;50.920;11.612;2023-10-19T06:59:12;10.40;99.90
22795;DHT22;11564;50.920;11.612;2023-10-19T07:01:38;10.50;99.90
22795;DHT22;11564;50.920;11.612;2023-10-19T07:04:03;10.50;99.90
22795;DHT22;11564;50.920;11.612;2023-10-19T07:06:29;10.50;99.90
22795;DHT22;11564;50.920;11.612;2023-10-19T07:08:56;10.50;99.90
22795;DHT22;11564;50.920;11.612;2023-10-19T07:11:22;10.60;99.90
22795;DHT22;11564;50.920;11.612;2023-10-19T07:13:49;10.60;99.90
22795;DHT22;11564;50.920;11.612;2023-10-19T07:16:14;10.60;99.90
22795;DHT22;11564;50.920;11.612;2023-10-19T07:18:40;10.60;99.90
22795;DHT22;11564;50.920;11.612;2023-10-19T07:21:05;10.60;99.90
22795;DHT22;11564;50.920;11.612;2023-10-19T07:23:35;10.70;99.90
22795;DHT22;11564;50.920;11.612;2023-10-19T07:26:03;10.70;99.90
22795;DHT22;11564;50.920;11.612;2023-10-19T07:28:28;10.70;99.90
22795;DHT22;11564;50.920;11.612;2023-10-19T07:30:55;10.80;99.90
22795;DHT22;11564;50.920;11.612;2023-10-19T07:33:21;10.80;99.90
22795;DHT22;11564;50.920;11.612;2023-10-19T07:35:47;10.80;99.90
22795;DHT22;11564;50.920;11.612;2023-10-19T07:38:13;10.80;99.90
22795;DHT22;11564;50.920;11.612;2023-10-19T07:40:39;10.80;99.90
22795;DHT22;11564;50.920;11.612;2023-10-19T07:43:05;10.90;99.90
22795;DHT22;11564;50.920;11.612;2023-10-19T07:45:31;10.90;99.90
22795;DHT22;11564;50.920;11.612;2023-10-19T07:47:57;10.90;99.90
22795;DHT22;11564;50.920;11.612;2023-10-19T07:50:23;11.20;99.90
22795;DHT22;11564;50.920;11.612;2023-10-19T07:52:52;11.30;99.90
22795;DHT22;11564;50.920;11.612;2023-10-19T07:55:19;11.40;99.90
22795;DHT22;11564;50.920;11.612;2023-10-19T07:57:45;11.70;99.90
22795;DHT22;11564;50.920;11.612;2023-10-19T08:00:11;12.00;99.90
22795;DHT22;11564;50.920;11.612;2023-10-19T08:02:39;12.10;99.90
22795;DHT22;11564;50.920;11.612;2023-10-19T08:05:07;12.20;99.90
22795;DHT22;11564;50.920;11.612;2023-10-19T08:07:32;12.30;99.90
22795;DHT22;11564;50.920;11.612;2023-10-19T08:10:00;12.40;99.90
22795;DHT22;11564;50.920;11.612;2023-10-19T08:12:26;12.30;99.90
22795;DHT22;11564;50.920;11.612;2023-10-19T08:14:52;12.50;99.90
22795;DHT22;11564;50.920;11.612;2023-10-19T08:17:18;12.70;99.90
22795;DHT22;11564;50.920;11.612;2023-10-19T08:19:43;12.80;99.90
22795;DHT22;11564;50.920;11.612;2023-10-19T08:22:09;12.80;99.90
22795;DHT22;11564;50.920;11.612;2023-10-19T08:24:35;12.70;99.90
22795;DHT22;11564;50.920;11.612;2023-10-19T08:27:00;12.80;99.90
22795;DHT22;11564;50.920;11.612;2023-10-19T08:29:26;12.90;99.90
22795;DHT22;11564;50.920;11.612;2023-10-19T08:31:52;12.90;99.90
22795;DHT22;11564;50.920;11.612;2023-10-19T08:34:17;13.10;99.90
22795;DHT22;11564;50.920;11.612;2023-10-19T08:36:44;13.20;99.90
22795;DHT22;11564;50.920;11.612;2023-10-19T08:39:10;13.30;99.90
22795;DHT22;11564;50.920;11.612;2023-10-19T08:41:38;13.30;99.90
22795;DHT22;11564;50.920;11.612;2023-10-19T08:44:05;13.50;99.90
22795;DHT22;11564;50.920;11.612;2023-10-19T08:46:42;13.60;99.90
22795;DHT22;11564;50.920;11.612;2023-10-19T08:49:15;13.40;99.90
22795;DHT22;11564;50.920;11.612;2023-10-19T08:51:45;12.90;99.90
22795;DHT22;11564;50.920;11.612;2023-10-19T08:54:14;12.90;99.90
22795;DHT22;11564;50.920;11.612;2023-10-19T08:56:40;13.00;99.90
22795;DHT22;11564;50.920;11.612;2023-10-19T08:59:07;12.90;99.90
22795;DHT22;11564;50.920;11.612;2023-10-19T09:01:32;12.80;99.90
22795;DHT22;11564;50.920;11.612;2023-10-19T09:04:00;12.70;99.90
22795;DHT22;11564;50.920;11.612;2023-10-19T09:06:26;12.80;99.90
22795;DHT22;11564;50.920;11.612;2023-10-19T09:08:54;12.90;99.90
22795;DHT22;11564;50.920;11.612;2023-10-19T09:11:20;13.00;99.90
22795;DHT22;11564;50.920;11.612;2023-10-19T09:13:52;13.10;99.90
22795;DHT22;11564;50.920;11.612;2023-10-19T09:16:18;13.30;99.90
22795;DHT22;11564;50.920;11.612;2023-10-19T09:18:44;13.60;99.90
22795;DHT22;11564;50.920;11.612;2023-10-19T09:21:10;13.80;99.90
22795;DHT22;11564;50.920;11.612;2023-10-19T09:23:46;14.00;99.90
22795;DHT22;11564;50.920;11.612;2023-10-19T09:26:12;14.10;99.90
22795;DHT22;11564;50.920;11.612;2023-10-19T09:28:38;14.20;99.90
22795;DHT22;11564;50.920;11.612;2023-10-19T09:31:04;14.20;99.90
22795;DHT22;11564;50.920;11.612;2023-10-19T09:33:33;14.00;99.90
22795;DHT22;11564;50.920;11.612;2023-10-19T09:36:02;14.10;99.90
22795;DHT22;11564;50.920;11.612;2023-10-19T09:38:30;14.00;99.90
22795;DHT22;11564;50.920;11.612;2023-10-19T09:40:55;14.10;99.90
22795;DHT22;11564;50.920;11.612;2023-10-19T09:45:50;14.10;99.90
22795;DHT22;11564;50.920;11.612;2023-10-19T09:48:19;14.10;99.90
22795;DHT22;11564;50.920;11.612;2023-10-19T09:50:45;14.20;99.90
22795;DHT22;11564;50.920;11.612;2023-10-19T09:53:17;14.60;99.90
22795;DHT22;11564;50.920;11.612;2023-10-19T09:55:43;15.00;99.90
22795;DHT22;11564;50.920;11.612;2023-10-19T09:58:15;15.20;99.90
22795;DHT22;11564;50.920;11.612;2023-10-19T10:00:45;15.40;99.90
22795;DHT22;11564;50.920;11.612;2023-10-19T10:05:54;15.90;99.90
22795;DHT22;11564;50.920;11.612;2023-10-19T10:08:27;15.90;99.90
22795;DHT22;11564;50.920;11.612;2023-10-19T10:10:54;16.20;99.90
22795;DHT22;11564;50.920;11.612;2023-10-19T10:15:49;16.20;99.90
22795;DHT22;11564;50.920;11.612;2023-10-19T10:18:15;16.30;99.90
22795;DHT22;11564;50.920;11.612;2023-10-19T10:20:40;16.40;99.90
22795;DHT22;11564;50.920;11.612;2023-10-19T10:23:19;16.30;99.90
22795;DHT22;11564;50.920;11.612;2023-10-19T10:25:50;15.70;99.90
22795;DHT22;11564;50.920;11.612;2023-10-19T10:28:19;15.90;99.90
22795;DHT22;11564;50.920;11.612;2023-10-19T10:33:38;15.70;99.90
22795;DHT22;11564;50.920;11.612;2023-10-19T10:36:07;16.00;99.90
22795;DHT22;11564;50.920;11.612;2023-10-19T10:38:33;16.20;99.90
22795;DHT22;11564;50.920;11.612;2023-10-19T10:41:00;15.70;99.90
22795;DHT22;11564;50.920;11.612;2023-10-19T10:43:27;15.90;99.90
22795;DHT22;11564;50.920;11.612;2023-10-19T10:46:02;16.40;99.90
22795;DHT22;11564;50.920;11.612;2023-10-19T10:48:28;16.70;99.90
22795;DHT22;11564;50.920;11.612;2023-10-19T10:50:53;16.60;99.90
22795;DHT22;11564;50.920;11.612;2023-10-19T10:53:19;16.90;99.90
22795;DHT22;11564;50.920;11.612;2023-10-19T10:55:44;16.70;99.90
22795;DHT22;11564;50.920;11.612;2023-10-19T10:58:16;17.10;99.90
22795;DHT22;11564;50.920;11.612;2023-10-19T11:00:42;17.30;99.90
22795;DHT22;11564;50.920;11.612;2023-10-19T11:03:08;17.50;99.90
22795;DHT22;11564;50.920;11.612;2023-10-19T11:05:38;17.80;99.90
22795;DHT22;11564;50.920;11.612;2023-10-19T11:08:13;18.10;99.90
22795;DHT22;11564;50.920;11.612;2023-10-19T11:10:39;18.60;99.90
22795;DHT22;11564;50.920;11.612;2023-10-19T11:13:06;18.80;98.30
22795;DHT22;11564;50.920;11.612;2023-10-19T11:15:53;18.60;99.20
22795;DHT22;11564;50.920;11.612;2023-10-19T11:18:52;18.70;98.50
22795;DHT22;11564;50.920;11.612;2023-10-19T11:21:15;19.40;97.90
22795;DHT22;11564;50.920;11.612;2023-10-19T11:23:44;19.70;97.70
22795;DHT22;11564;50.920;11.612;2023-10-19T11:26:11;19.90;96.90
22795;DHT22;11564;50.920;11.612;2023-10-19T11:28:36;20.10;97.10
22795;DHT22;11564;50.920;11.612;2023-10-19T11:31:13;20.10;97.80
22795;DHT22;11564;50.920;11.612;2023-10-19T11:33:40;20.20;97.40
22795;DHT22;11564;50.920;11.612;2023-10-19T11:36:06;20.30;96.60
22795;DHT22;11564;50.920;11.612;2023-10-19T11:38:32;20.50;96.90
22795;DHT22;11564;50.920;11.612;2023-10-19T11:40:57;20.90;96.00
22795;DHT22;11564;50.920;11.612;2023-10-19T11:43:23;21.10;96.00
22795;DHT22;11564;50.920;11.612;2023-10-19T11:45:48;21.10;95.40
22795;DHT22;11564;50.920;11.612;2023-10-19T11:48:14;21.40;95.30
22795;DHT22;11564;50.920;11.612;2023-10-19T11:50:41;21.90;95.00
22795;DHT22;11564;50.920;11.612;2023-10-19T11:53:06;22.20;94.00
22795;DHT22;11564;50.920;11.612;2023-10-19T11:55:33;22.60;94.10
22795;DHT22;11564;50.920;11.612;2023-10-19T11:57:58;23.10;93.30
22795;DHT22;11564;50.920;11.612;2023-10-19T12:00:24;22.70;92.30
22795;DHT22;11564;50.920;11.612;2023-10-19T12:02:59;23.10;92.60
22795;DHT22;11564;50.920;11.612;2023-10-19T12:05:24;22.40;92.60
22795;DHT22;11564;50.920;11.612;2023-10-19T12:07:50;22.50;92.10
22795;DHT22;11564;50.920;11.612;2023-10-19T12:10:17;22.70;92.30
22795;DHT22;11564;50.920;11.612;2023-10-19T12:12:45;22.70;92.40
22795;DHT22;11564;50.920;11.612;2023-10-19T12:15:11;22.50;92.50
22795;DHT22;11564;50.920;11.612;2023-10-19T12:17:38;23.20;90.70
22795;DHT22;11564;50.920;11.612;2023-10-19T12:20:03;24.40;90.00
22795;DHT22;11564;50.920;11.612;2023-10-19T12:22:31;23.80;90.20
22795;DHT22;11564;50.920;11.612;2023-10-19T12:25:01;23.50;90.80
22795;DHT22;11564;50.920;11.612;2023-10-19T12:27:28;23.40;90.50
22795;DHT22;11564;50.920;11.612;2023-10-19T12:29:53;23.50;91.00
22795;DHT22;11564;50.920;11.612;2023-10-19T12:32:19;23.20;90.90
22795;DHT22;11564;50.920;11.612;2023-10-19T12:34:45;22.50;91.00
22795;DHT22;11564;50.920;11.612;2023-10-19T12:37:10;22.40;91.60
22795;DHT22;11564;50.920;11.612;2023-10-19T12:39:38;22.50;91.50
22795;DHT22;11564;50.920;11.612;2023-10-19T12:42:24;23.00;90.50
22795;DHT22;11564;50.920;11.612;2023-10-19T12:44:49;22.70;91.50
22795;DHT22;11564;50.920;11.612;2023-10-19T12:47:16;22.40;91.50
22795;DHT22;11564;50.920;11.612;2023-10-19T12:49:43;21.90;91.60
22795;DHT22;11564;50.920;11.612;2023-10-19T12:52:10;21.90;91.80
22795;DHT22;11564;50.920;11.612;2023-10-19T12:54:36;22.50;91.10
22795;DHT22;11564;50.920;11.612;2023-10-19T12:57:02;23.20;90.10
22795;DHT22;11564;50.920;11.612;2023-10-19T12:59:35;22.80;90.10
22795;DHT22;11564;50.920;11.612;2023-10-19T13:02:03;22.50;90.70
22795;DHT22;11564;50.920;11.612;2023-10-19T13:04:28;22.10;91.80
22795;DHT22;11564;50.920;11.612;2023-10-19T13:06:56;22.20;91.60
22795;DHT22;11564;50.920;11.612;2023-10-19T13:09:26;21.90;91.80
22795;DHT22;11564;50.920;11.612;2023-10-19T13:11:58;21.30;91.90
22795;DHT22;11564;50.920;11.612;2023-10-19T13:14:24;21.10;92.60
22795;DHT22;11564;50.920;11.612;2023-10-19T13:16:50;20.80;93.40
22795;DHT22;11564;50.920;11.612;2023-10-19T13:19:17;20.30;93.40
22795;DHT22;11564;50.920;11.612;2023-10-19T13:21:47;20.20;93.60
22795;DHT22;11564;50.920;11.612;2023-10-19T13:24:14;20.50;93.90
22795;DHT22;11564;50.920;11.612;2023-10-19T13:26:40;20.60;93.60
22795;DHT22;11564;50.920;11.612;2023-10-19T13:29:07;20.40;93.40
22795;DHT22;11564;50.920;11.612;2023-10-19T13:31:33;20.60;93.50
22795;DHT22;11564;50.920;11.612;2023-10-19T13:34:00;20.50;93.30
22795;DHT22;11564;50.920;11.612;2023-10-19T13:36:25;20.20;93.60
22795;DHT22;11564;50.920;11.612;2023-10-19T13:38:51;20.20;93.30
22795;DHT22;11564;50.920;11.612;2023-10-19T13:41:16;20.00;93.30
22795;DHT22;11564;50.920;11.612;2023-10-19T13:43:42;19.90;94.10
22795;DHT22;11564;50.920;11.612;2023-10-19T13:46:07;19.80;93.60
22795;DHT22;11564;50.920;11.612;2023-10-19T13:48:33;19.90;94.10
22795;DHT22;11564;50.920;11.612;2023-10-19T13:50:58;20.20;93.80
22795;DHT22;11564;50.920;11.612;2023-10-19T13:53:41;20.20;93.50
22795;DHT22;11564;50.920;11.612;2023-10-19T13:56:07;21.00;92.50
22795;DHT22;11564;50.920;11.612;2023-10-19T13:58:32;23.00;90.50
22795;DHT22;11564;50.920;11.612;2023-10-19T14:00:58;26.00;85.60
22795;DHT22;11564;50.920;11.612;2023-10-19T14:03:24;28.90;76.40
22795;DHT22;11564;50.920;11.612;2023-10-19T14:05:49;28.90;72.10
22795;DHT22;11564;50.920;11.612;2023-10-19T14:08:16;27.10;75.20
22795;DHT22;11564;50.920;11.612;2023-10-19T14:10:42;27.10;76.80
22795;DHT22;11564;50.920;11.612;2023-10-19T14:13:07;27.70;74.70
22795;DHT22;11564;50.920;11.612;2023-10-19T14:15:33;26.80;75.20
22795;DHT22;11564;50.920;11.612;2023-10-19T14:17:59;27.70;74.10
22795;DHT22;11564;50.920;11.612;2023-10-19T14:20:27;28.00;73.50
22795;DHT22;11564;50.920;11.612;2023-10-19T14:22:53;26.90;75.40
22795;DHT22;11564;50.920;11.612;2023-10-19T14:25:19;25.50;79.20
22795;DHT22;11564;50.920;11.612;2023-10-19T14:27:46;24.50;81.70
22795;DHT22;11564;50.920;11.612;2023-10-19T14:30:13;22.80;83.90
22795;DHT22;11564;50.920;11.612;2023-10-19T14:32:45;22.10;86.60
22795;DHT22;11564;50.920;11.612;2023-10-19T14:35:15;21.10;89.20
22795;DHT22;11564;50.920;11.612;2023-10-19T14:37:41;20.40;90.50
22795;DHT22;11564;50.920;11.612;2023-10-19T14:40:11;19.80;91.00
22795;DHT22;11564;50.920;11.612;2023-10-19T14:42:40;19.10;92.00
22795;DHT22;11564;50.920;11.612;2023-10-19T14:45:11;18.50;93.20
22795;DHT22;11564;50.920;11.612;2023-10-19T14:47:37;18.20;93.70
22795;DHT22;11564;50.920;11.612;2023-10-19T14:50:03;17.80;94.30
22795;DHT22;11564;50.920;11.612;2023-10-19T14:52:29;17.60;95.20
22795;DHT22;11564;50.920;11.612;2023-10-19T14:54:54;17.40;95.30
22795;DHT22;11564;50.920;11.612;2023-10-19T14:57:21;17.40;95.80
22795;DHT22;11564;50.920;11.612;2023-10-19T14:59:47;17.00;95.90
22795;DHT22;11564;50.920;11.612;2023-10-19T15:02:12;17.10;96.20
22795;DHT22;11564;50.920;11.612;2023-10-19T15:04:38;16.90;96.50
22795;DHT22;11564;50.920;11.612;2023-10-19T15:07:03;16.70;96.40
22795;DHT22;11564;50.920;11.612;2023-10-19T15:09:29;16.40;97.40
22795;DHT22;11564;50.920;11.612;2023-10-19T15:11:55;16.50;97.10
22795;DHT22;11564;50.920;11.612;2023-10-19T15:14:20;16.30;97.90
22795;DHT22;11564;50.920;11.612;2023-10-19T15:16:46;16.20;98.00
22795;DHT22;11564;50.920;11.612;2023-10-19T15:19:11;16.00;98.20
22795;DHT22;11564;50.920;11.612;2023-10-19T15:21:43;16.00;98.50
22795;DHT22;11564;50.920;11.612;2023-10-19T15:24:10;15.80;99.10
22795;DHT22;11564;50.920;11.612;2023-10-19T15:26:38;15.80;99.50
22795;DHT22;11564;50.920;11.612;2023-10-19T15:29:03;15.70;99.70
22795;DHT22;11564;50.920;11.612;2023-10-19T15:31:30;15.60;99.60
22795;DHT22;11564;50.920;11.612;2023-10-19T15:33:56;15.60;99.90
22795;DHT22;11564;50.920;11.612;2023-10-19T15:36:21;15.50;99.80
22795;DHT22;11564;50.920;11.612;2023-10-19T15:38:47;15.50;99.90